sensor_id;sensor_type;location;lat;lon;timestamp;pressure;altitude;pressure_sealevel;temperature;humidity
56176;BME280;63065;51.082;17.016;2023-04-07T00:00:47;100520.94;;;9.87;34.18
56176;BME280;63065;51.082;17.016;2023-04-07T00:03:12;100517.70;;;9.54;34.97
56176;BME280;63065;51.082;17.016;2023-04-07T00:05:38;100517.64;;;9.76;35.27
56176;BME280;63065;51.082;17.016;2023-04-07T00:08:03;100518.47;;;9.82;35.16
56176;BME280;63065;51.082;17.016;2023-04-07T00:10:28;100518.87;;;9.53;36.27
56176;BME280;63065;51.082;17.016;2023-04-07T00:12:54;100514.59;;;9.62;37.17
56176;BME280;63065;51.082;17.016;2023-04-07T00:15:19;100513.27;;;9.70;36.27
56176;BME280;63065;51.082;17.016;2023-04-07T00:17:45;100512.44;;;9.64;36.60
56176;BME280;63065;51.082;17.016;2023-04-07T00:20:11;100512.48;;;9.48;36.47
56176;BME280;63065;51.082;17.016;2023-04-07T00:22:36;100513.58;;;9.75;36.47
56176;BME280;63065;51.082;17.016;2023-04-07T00:25:01;100511.02;;;9.72;36.71
56176;BME280;63065;51.082;17.016;2023-04-07T00:27:26;100510.19;;;9.67;36.77
56176;BME280;63065;51.082;17.016;2023-04-07T00:29:52;100506.70;;;9.74;36.82
56176;BME280;63065;51.082;17.016;2023-04-07T00:32:17;100499.99;;;9.51;37.49
56176;BME280;63065;51.082;17.016;2023-04-07T00:34:43;100499.76;;;9.06;37.58
56176;BME280;63065;51.082;17.016;2023-04-07T00:37:09;100499.74;;;8.93;37.63
56176;BME280;63065;51.082;17.016;2023-04-07T00:39:34;100498.79;;;9.11;38.20
56176;BME280;63065;51.082;17.016;2023-04-07T00:41:59;100494.02;;;9.18;37.77
56176;BME280;63065;51.082;17.016;2023-04-07T00:44:24;100491.72;;;8.68;38.25
56176;BME280;63065;51.082;17.016;2023-04-07T00:46:50;100491.04;;;8.26;38.97
56176;BME280;63065;51.082;17.016;2023-04-07T00:49:16;100488.09;;;8.48;39.75
56176;BME280;63065;51.082;17.016;2023-04-07T00:51:41;100487.17;;;8.40;39.84
56176;BME280;63065;51.082;17.016;2023-04-07T00:54:06;100483.24;;;8.41;39.26
56176;BME280;63065;51.082;17.016;2023-04-07T00:56:32;100478.67;;;8.07;39.70
56176;BME280;63065;51.082;17.016;2023-04-07T00:58:57;100478.23;;;8.09;39.89
56176;BME280;63065;51.082;17.016;2023-04-07T01:01:26;100476.28;;;8.18;39.85
56176;BME280;63065;51.082;17.016;2023-04-07T01:03:53;100473.70;;;9.14;38.68
56176;BME280;63065;51.082;17.016;2023-04-07T01:06:17;100470.96;;;8.61;38.72
56176;BME280;63065;51.082;17.016;2023-04-07T01:08:48;100467.09;;;9.27;38.49
56176;BME280;63065;51.082;17.016;2023-04-07T01:11:09;100466.98;;;9.13;38.23
56176;BME280;63065;51.082;17.016;2023-04-07T01:13:35;100465.34;;;9.12;37.67
56176;BME280;63065;51.082;17.016;2023-04-07T01:15:57;100468.42;;;8.42;38.59
56176;BME280;63065;51.082;17.016;2023-04-07T01:18:25;100466.18;;;8.61;39.64
56176;BME280;63065;51.082;17.016;2023-04-07T01:20:48;100463.82;;;8.26;39.03
56176;BME280;63065;51.082;17.016;2023-04-07T01:23:18;100462.17;;;8.25;39.53
56176;BME280;63065;51.082;17.016;2023-04-07T01:25:53;100458.97;;;8.23;39.30
56176;BME280;63065;51.082;17.016;2023-04-07T01:28:16;100456.89;;;8.33;39.48
56176;BME280;63065;51.082;17.016;2023-04-07T01:30:30;100452.03;;;8.64;39.29
56176;BME280;63065;51.082;17.016;2023-04-07T01:32:55;100454.65;;;8.50;38.96
56176;BME280;63065;51.082;17.016;2023-04-07T01:35:19;100454.91;;;8.27;39.81
56176;BME280;63065;51.082;17.016;2023-04-07T01:37:45;100460.17;;;7.87;40.02
56176;BME280;63065;51.082;17.016;2023-04-07T01:40:09;100458.35;;;7.54;40.51
56176;BME280;63065;51.082;17.016;2023-04-07T01:42:35;100456.50;;;8.30;40.46
56176;BME280;63065;51.082;17.016;2023-04-07T01:45:01;100456.91;;;8.04;40.42
56176;BME280;63065;51.082;17.016;2023-04-07T01:47:26;100454.52;;;7.20;41.58
56176;BME280;63065;51.082;17.016;2023-04-07T01:49:51;100452.78;;;7.18;42.61
56176;BME280;63065;51.082;17.016;2023-04-07T01:52:16;100452.71;;;7.21;42.48
56176;BME280;63065;51.082;17.016;2023-04-07T01:54:42;100451.37;;;7.16;42.60
56176;BME280;63065;51.082;17.016;2023-04-07T01:57:07;100449.11;;;7.37;42.65
56176;BME280;63065;51.082;17.016;2023-04-07T01:59:33;100445.86;;;7.00;42.47
56176;BME280;63065;51.082;17.016;2023-04-07T02:01:58;100444.34;;;7.52;42.18
56176;BME280;63065;51.082;17.016;2023-04-07T02:04:27;100443.55;;;7.99;41.16
56176;BME280;63065;51.082;17.016;2023-04-07T02:06:53;100440.51;;;8.24;41.02
56176;BME280;63065;51.082;17.016;2023-04-07T02:09:16;100441.44;;;8.46;40.44
56176;BME280;63065;51.082;17.016;2023-04-07T02:11:41;100445.02;;;8.50;40.38
56176;BME280;63065;51.082;17.016;2023-04-07T02:14:07;100443.75;;;7.80;41.98
56176;BME280;63065;51.082;17.016;2023-04-07T02:16:32;100439.50;;;7.63;42.30
56176;BME280;63065;51.082;17.016;2023-04-07T02:18:57;100437.66;;;7.35;42.77
56176;BME280;63065;51.082;17.016;2023-04-07T02:21:23;100436.05;;;7.39;43.06
56176;BME280;63065;51.082;17.016;2023-04-07T02:23:47;100431.04;;;7.04;44.19
56176;BME280;63065;51.082;17.016;2023-04-07T02:26:13;100431.03;;;7.10;43.74
56176;BME280;63065;51.082;17.016;2023-04-07T02:28:38;100426.32;;;7.57;42.55
56176;BME280;63065;51.082;17.016;2023-04-07T02:31:03;100424.93;;;8.00;41.63
56176;BME280;63065;51.082;17.016;2023-04-07T02:33:28;100422.23;;;8.14;41.47
56176;BME280;63065;51.082;17.016;2023-04-07T02:35:54;100423.74;;;8.61;41.09
56176;BME280;63065;51.082;17.016;2023-04-07T02:38:20;100421.09;;;8.22;40.66
56176;BME280;63065;51.082;17.016;2023-04-07T02:40:46;100425.86;;;8.71;41.35
56176;BME280;63065;51.082;17.016;2023-04-07T02:43:11;100428.67;;;7.02;43.07
56176;BME280;63065;51.082;17.016;2023-04-07T02:45:37;100427.27;;;7.20;43.84
56176;BME280;63065;51.082;17.016;2023-04-07T02:48:03;100424.20;;;6.78;44.47
56176;BME280;63065;51.082;17.016;2023-04-07T02:50:29;100419.41;;;7.15;43.79
56176;BME280;63065;51.082;17.016;2023-04-07T02:52:54;100415.75;;;6.76;43.68
56176;BME280;63065;51.082;17.016;2023-04-07T02:55:19;100417.16;;;7.09;42.86
56176;BME280;63065;51.082;17.016;2023-04-07T02:57:45;100415.40;;;6.62;43.76
56176;BME280;63065;51.082;17.016;2023-04-07T03:00:13;100417.25;;;7.61;43.36
56176;BME280;63065;51.082;17.016;2023-04-07T03:02:35;100414.84;;;7.49;42.99
56176;BME280;63065;51.082;17.016;2023-04-07T03:05:00;100413.54;;;7.41;42.80
56176;BME280;63065;51.082;17.016;2023-04-07T03:07:26;100416.50;;;7.53;43.08
56176;BME280;63065;51.082;17.016;2023-04-07T03:09:51;100413.25;;;7.20;42.98
56176;BME280;63065;51.082;17.016;2023-04-07T03:12:17;100407.40;;;7.27;43.02
56176;BME280;63065;51.082;17.016;2023-04-07T03:14:42;100409.79;;;7.25;43.23
56176;BME280;63065;51.082;17.016;2023-04-07T03:17:07;100407.86;;;7.16;43.59
56176;BME280;63065;51.082;17.016;2023-04-07T03:19:33;100410.25;;;7.08;43.90
56176;BME280;63065;51.082;17.016;2023-04-07T03:21:59;100410.58;;;7.18;43.81
56176;BME280;63065;51.082;17.016;2023-04-07T03:24:24;100411.93;;;7.61;42.98
56176;BME280;63065;51.082;17.016;2023-04-07T03:26:50;100411.05;;;8.00;41.99
56176;BME280;63065;51.082;17.016;2023-04-07T03:29:15;100411.96;;;8.01;41.52
56176;BME280;63065;51.082;17.016;2023-04-07T03:31:40;100418.70;;;8.36;41.49
56176;BME280;63065;51.082;17.016;2023-04-07T03:34:05;100419.70;;;7.83;41.68
56176;BME280;63065;51.082;17.016;2023-04-07T03:36:31;100414.17;;;7.84;42.06
56176;BME280;63065;51.082;17.016;2023-04-07T03:38:56;100412.25;;;8.15;42.19
56176;BME280;63065;51.082;17.016;2023-04-07T03:41:22;100409.92;;;8.10;42.58
56176;BME280;63065;51.082;17.016;2023-04-07T03:43:47;100412.26;;;7.48;43.53
56176;BME280;63065;51.082;17.016;2023-04-07T03:46:12;100412.93;;;7.21;43.58
56176;BME280;63065;51.082;17.016;2023-04-07T03:48:37;100410.98;;;7.60;43.32
56176;BME280;63065;51.082;17.016;2023-04-07T03:51:03;100409.59;;;7.70;42.95
56176;BME280;63065;51.082;17.016;2023-04-07T03:53:28;100407.36;;;7.89;42.61
56176;BME280;63065;51.082;17.016;2023-04-07T03:55:54;100405.95;;;7.81;42.52
56176;BME280;63065;51.082;17.016;2023-04-07T03:58:19;100410.06;;;7.64;42.90
56176;BME280;63065;51.082;17.016;2023-04-07T04:00:44;100406.83;;;7.79;42.43
56176;BME280;63065;51.082;17.016;2023-04-07T04:03:09;100410.85;;;8.06;41.82
56176;BME280;63065;51.082;17.016;2023-04-07T04:05:35;100411.76;;;7.29;43.32
56176;BME280;63065;51.082;17.016;2023-04-07T04:08:00;100410.13;;;7.37;43.46
56176;BME280;63065;51.082;17.016;2023-04-07T04:10:25;100408.90;;;7.64;42.76
56176;BME280;63065;51.082;17.016;2023-04-07T04:12:50;100410.52;;;7.49;43.23
56176;BME280;63065;51.082;17.016;2023-04-07T04:15:15;100407.88;;;7.62;42.74
56176;BME280;63065;51.082;17.016;2023-04-07T04:17:41;100409.93;;;7.62;42.94
56176;BME280;63065;51.082;17.016;2023-04-07T04:20:08;100406.66;;;7.84;42.87
56176;BME280;63065;51.082;17.016;2023-04-07T04:22:33;100407.29;;;7.80;42.87
56176;BME280;63065;51.082;17.016;2023-04-07T04:24:59;100410.61;;;8.14;42.40
56176;BME280;63065;51.082;17.016;2023-04-07T04:27:24;100411.12;;;7.98;42.47
56176;BME280;63065;51.082;17.016;2023-04-07T04:29:49;100406.99;;;8.12;42.76
56176;BME280;63065;51.082;17.016;2023-04-07T04:32:15;100409.24;;;7.93;42.37
56176;BME280;63065;51.082;17.016;2023-04-07T04:34:40;100410.48;;;7.81;43.08
56176;BME280;63065;51.082;17.016;2023-04-07T04:37:06;100414.47;;;7.19;43.36
56176;BME280;63065;51.082;17.016;2023-04-07T04:39:31;100408.91;;;6.98;44.75
56176;BME280;63065;51.082;17.016;2023-04-07T04:41:56;100410.83;;;7.40;44.40
56176;BME280;63065;51.082;17.016;2023-04-07T04:44:22;100413.06;;;7.53;43.27
56176;BME280;63065;51.082;17.016;2023-04-07T04:46:47;100411.43;;;8.04;42.72
56176;BME280;63065;51.082;17.016;2023-04-07T04:49:13;100413.29;;;8.04;42.20
56176;BME280;63065;51.082;17.016;2023-04-07T04:51:39;100416.30;;;8.04;41.33
56176;BME280;63065;51.082;17.016;2023-04-07T04:54:04;100419.02;;;8.10;41.35
56176;BME280;63065;51.082;17.016;2023-04-07T04:56:29;100414.08;;;8.17;41.35
56176;BME280;63065;51.082;17.016;2023-04-07T04:58:55;100417.72;;;7.67;41.69
56176;BME280;63065;51.082;17.016;2023-04-07T05:01:20;100413.92;;;8.05;41.57
56176;BME280;63065;51.082;17.016;2023-04-07T05:03:45;100414.57;;;8.35;40.57
56176;BME280;63065;51.082;17.016;2023-04-07T05:06:11;100411.65;;;8.02;41.05
56176;BME280;63065;51.082;17.016;2023-04-07T05:08:36;100414.02;;;7.98;41.09
56176;BME280;63065;51.082;17.016;2023-04-07T05:11:01;100415.69;;;8.22;40.36
56176;BME280;63065;51.082;17.016;2023-04-07T05:13:27;100415.53;;;8.51;40.28
56176;BME280;63065;51.082;17.016;2023-04-07T05:15:52;100416.64;;;8.23;40.59
56176;BME280;63065;51.082;17.016;2023-04-07T05:18:18;100419.74;;;7.79;40.99
56176;BME280;63065;51.082;17.016;2023-04-07T05:20:43;100421.30;;;8.21;40.50
56176;BME280;63065;51.082;17.016;2023-04-07T05:23:08;100423.34;;;8.27;40.05
56176;BME280;63065;51.082;17.016;2023-04-07T05:25:34;100424.27;;;8.20;40.61
56176;BME280;63065;51.082;17.016;2023-04-07T05:27:59;100424.14;;;8.52;40.27
56176;BME280;63065;51.082;17.016;2023-04-07T05:30:25;100424.15;;;6.97;42.38
56176;BME280;63065;51.082;17.016;2023-04-07T05:32:52;100421.34;;;7.83;42.23
56176;BME280;63065;51.082;17.016;2023-04-07T05:35:15;100420.98;;;7.60;42.11
56176;BME280;63065;51.082;17.016;2023-04-07T05:37:40;100422.66;;;7.14;42.23
56176;BME280;63065;51.082;17.016;2023-04-07T05:40:07;100422.23;;;7.31;42.89
56176;BME280;63065;51.082;17.016;2023-04-07T05:42:31;100421.08;;;7.14;42.39
56176;BME280;63065;51.082;17.016;2023-04-07T05:44:56;100422.02;;;7.07;43.22
56176;BME280;63065;51.082;17.016;2023-04-07T05:47:23;100425.55;;;7.45;42.49
56176;BME280;63065;51.082;17.016;2023-04-07T05:49:48;100422.19;;;7.38;42.64
56176;BME280;63065;51.082;17.016;2023-04-07T05:52:14;100420.86;;;7.65;41.76
56176;BME280;63065;51.082;17.016;2023-04-07T05:54:39;100422.46;;;7.66;41.95
56176;BME280;63065;51.082;17.016;2023-04-07T05:57:04;100421.41;;;7.65;42.09
56176;BME280;63065;51.082;17.016;2023-04-07T05:59:30;100424.66;;;7.35;43.01
56176;BME280;63065;51.082;17.016;2023-04-07T06:01:55;100429.59;;;7.54;42.63
56176;BME280;63065;51.082;17.016;2023-04-07T06:04:20;100427.42;;;7.39;42.29
56176;BME280;63065;51.082;17.016;2023-04-07T06:06:46;100430.31;;;7.40;43.10
56176;BME280;63065;51.082;17.016;2023-04-07T06:09:11;100428.33;;;7.30;42.49
56176;BME280;63065;51.082;17.016;2023-04-07T06:11:36;100428.08;;;7.70;42.26
56176;BME280;63065;51.082;17.016;2023-04-07T06:14:02;100425.33;;;7.69;41.81
56176;BME280;63065;51.082;17.016;2023-04-07T06:16:27;100426.21;;;6.84;42.68
56176;BME280;63065;51.082;17.016;2023-04-07T06:18:52;100428.08;;;7.36;43.33
56176;BME280;63065;51.082;17.016;2023-04-07T06:21:18;100425.93;;;7.72;42.44
56176;BME280;63065;51.082;17.016;2023-04-07T06:23:43;100425.92;;;7.39;42.35
56176;BME280;63065;51.082;17.016;2023-04-07T06:26:10;100423.81;;;7.72;42.34
56176;BME280;63065;51.082;17.016;2023-04-07T06:28:34;100423.18;;;7.62;42.25
56176;BME280;63065;51.082;17.016;2023-04-07T06:30:59;100424.22;;;7.67;42.19
56176;BME280;63065;51.082;17.016;2023-04-07T06:33:25;100423.31;;;7.64;42.61
56176;BME280;63065;51.082;17.016;2023-04-07T06:35:50;100426.43;;;8.25;42.07
56176;BME280;63065;51.082;17.016;2023-04-07T06:38:16;100424.22;;;8.11;41.39
56176;BME280;63065;51.082;17.016;2023-04-07T06:40:41;100425.96;;;7.68;42.63
56176;BME280;63065;51.082;17.016;2023-04-07T06:43:07;100423.35;;;7.69;42.95
56176;BME280;63065;51.082;17.016;2023-04-07T06:45:32;100420.33;;;7.70;42.44
56176;BME280;63065;51.082;17.016;2023-04-07T06:47:58;100417.28;;;7.95;42.40
56176;BME280;63065;51.082;17.016;2023-04-07T06:50:24;100418.76;;;8.01;41.79
56176;BME280;63065;51.082;17.016;2023-04-07T06:52:50;100414.71;;;8.09;42.24
56176;BME280;63065;51.082;17.016;2023-04-07T06:55:15;100414.41;;;8.00;42.10
56176;BME280;63065;51.082;17.016;2023-04-07T06:57:40;100414.39;;;7.71;42.04
56176;BME280;63065;51.082;17.016;2023-04-07T07:00:07;100412.31;;;7.39;43.01
56176;BME280;63065;51.082;17.016;2023-04-07T07:02:31;100409.61;;;7.93;42.91
56176;BME280;63065;51.082;17.016;2023-04-07T07:04:57;100408.87;;;7.79;43.24
56176;BME280;63065;51.082;17.016;2023-04-07T07:07:23;100410.00;;;8.47;41.87
56176;BME280;63065;51.082;17.016;2023-04-07T07:09:48;100406.49;;;8.40;42.45
56176;BME280;63065;51.082;17.016;2023-04-07T07:12:13;100399.17;;;8.52;41.62
56176;BME280;63065;51.082;17.016;2023-04-07T07:14:39;100399.44;;;8.28;41.48
56176;BME280;63065;51.082;17.016;2023-04-07T07:17:04;100400.50;;;7.81;42.69
56176;BME280;63065;51.082;17.016;2023-04-07T07:19:29;100400.35;;;8.21;41.78
56176;BME280;63065;51.082;17.016;2023-04-07T07:21:54;100401.38;;;8.18;42.12
56176;BME280;63065;51.082;17.016;2023-04-07T07:24:20;100403.44;;;7.67;42.67
56176;BME280;63065;51.082;17.016;2023-04-07T07:26:45;100405.60;;;7.46;42.54
56176;BME280;63065;51.082;17.016;2023-04-07T07:29:11;100407.61;;;7.92;42.43
56176;BME280;63065;51.082;17.016;2023-04-07T07:31:37;100409.94;;;7.87;42.00
56176;BME280;63065;51.082;17.016;2023-04-07T07:34:02;100409.24;;;7.88;42.77
56176;BME280;63065;51.082;17.016;2023-04-07T07:36:27;100409.17;;;8.01;42.81
56176;BME280;63065;51.082;17.016;2023-04-07T07:38:53;100414.35;;;8.03;42.71
56176;BME280;63065;51.082;17.016;2023-04-07T07:41:19;100418.61;;;8.10;42.27
56176;BME280;63065;51.082;17.016;2023-04-07T07:43:44;100422.89;;;8.04;42.90
56176;BME280;63065;51.082;17.016;2023-04-07T07:46:09;100423.62;;;8.06;42.97
56176;BME280;63065;51.082;17.016;2023-04-07T07:48:35;100425.35;;;7.69;42.35
56176;BME280;63065;51.082;17.016;2023-04-07T07:51:00;100432.91;;;8.30;42.42
56176;BME280;63065;51.082;17.016;2023-04-07T07:53:27;100434.03;;;8.04;42.14
56176;BME280;63065;51.082;17.016;2023-04-07T07:55:51;100438.48;;;7.96;42.80
56176;BME280;63065;51.082;17.016;2023-04-07T07:58:17;100439.98;;;8.30;42.05
56176;BME280;63065;51.082;17.016;2023-04-07T08:00:43;100441.56;;;8.65;41.66
56176;BME280;63065;51.082;17.016;2023-04-07T08:03:08;100440.94;;;8.45;40.87
56176;BME280;63065;51.082;17.016;2023-04-07T08:05:33;100440.95;;;9.01;40.45
56176;BME280;63065;51.082;17.016;2023-04-07T08:07:59;100441.44;;;9.09;40.29
56176;BME280;63065;51.082;17.016;2023-04-07T08:10:24;100439.81;;;8.65;40.87
56176;BME280;63065;51.082;17.016;2023-04-07T08:12:50;100436.80;;;8.54;40.61
56176;BME280;63065;51.082;17.016;2023-04-07T08:15:16;100432.33;;;9.17;39.80
56176;BME280;63065;51.082;17.016;2023-04-07T08:17:41;100433.00;;;8.82;41.02
56176;BME280;63065;51.082;17.016;2023-04-07T08:20:07;100435.45;;;8.49;41.34
56176;BME280;63065;51.082;17.016;2023-04-07T08:22:31;100438.04;;;7.96;41.85
56176;BME280;63065;51.082;17.016;2023-04-07T08:24:57;100438.23;;;8.27;41.91
56176;BME280;63065;51.082;17.016;2023-04-07T08:27:23;100436.32;;;8.02;42.82
56176;BME280;63065;51.082;17.016;2023-04-07T08:29:57;100437.24;;;8.39;41.93
56176;BME280;63065;51.082;17.016;2023-04-07T08:32:13;100434.48;;;8.47;41.95
56176;BME280;63065;51.082;17.016;2023-04-07T08:34:38;100434.39;;;8.31;41.69
56176;BME280;63065;51.082;17.016;2023-04-07T08:37:04;100429.99;;;8.70;40.40
56176;BME280;63065;51.082;17.016;2023-04-07T08:39:29;100433.43;;;8.48;41.23
56176;BME280;63065;51.082;17.016;2023-04-07T08:41:55;100428.43;;;8.83;41.12
56176;BME280;63065;51.082;17.016;2023-04-07T08:44:21;100431.78;;;9.05;40.59
56176;BME280;63065;51.082;17.016;2023-04-07T08:46:46;100427.32;;;8.47;40.66
56176;BME280;63065;51.082;17.016;2023-04-07T08:49:11;100429.32;;;8.23;41.12
56176;BME280;63065;51.082;17.016;2023-04-07T08:51:37;100427.86;;;7.78;42.56
56176;BME280;63065;51.082;17.016;2023-04-07T08:54:05;100435.50;;;8.43;42.12
56176;BME280;63065;51.082;17.016;2023-04-07T08:56:29;100429.05;;;8.63;41.69
56176;BME280;63065;51.082;17.016;2023-04-07T08:58:54;100427.40;;;8.89;40.53
56176;BME280;63065;51.082;17.016;2023-04-07T09:01:20;100430.42;;;9.09;40.78
56176;BME280;63065;51.082;17.016;2023-04-07T09:03:45;100427.59;;;8.96;40.34
56176;BME280;63065;51.082;17.016;2023-04-07T09:06:10;100428.37;;;8.39;41.34
56176;BME280;63065;51.082;17.016;2023-04-07T09:08:36;100417.67;;;8.79;41.69
56176;BME280;63065;51.082;17.016;2023-04-07T09:11:01;100418.64;;;9.20;40.36
56176;BME280;63065;51.082;17.016;2023-04-07T09:13:26;100419.66;;;9.18;39.04
56176;BME280;63065;51.082;17.016;2023-04-07T09:15:52;100422.92;;;8.95;40.98
56176;BME280;63065;51.082;17.016;2023-04-07T09:18:18;100424.36;;;9.35;40.54
56176;BME280;63065;51.082;17.016;2023-04-07T09:23:17;100426.52;;;9.16;39.69
56176;BME280;63065;51.082;17.016;2023-04-07T09:25:33;100426.78;;;9.43;39.73
56176;BME280;63065;51.082;17.016;2023-04-07T09:28:00;100423.55;;;9.17;40.66
56176;BME280;63065;51.082;17.016;2023-04-07T09:30:25;100423.05;;;9.24;40.16
56176;BME280;63065;51.082;17.016;2023-04-07T09:32:50;100422.87;;;9.78;40.05
56176;BME280;63065;51.082;17.016;2023-04-07T09:35:15;100423.54;;;9.47;38.57
56176;BME280;63065;51.082;17.016;2023-04-07T09:37:40;100421.43;;;9.31;39.50
56176;BME280;63065;51.082;17.016;2023-04-07T09:40:07;100423.14;;;9.87;39.68
56176;BME280;63065;51.082;17.016;2023-04-07T09:42:32;100424.69;;;9.05;39.62
56176;BME280;63065;51.082;17.016;2023-04-07T09:44:58;100423.55;;;8.67;40.78
56176;BME280;63065;51.082;17.016;2023-04-07T09:47:25;100416.29;;;8.75;40.58
56176;BME280;63065;51.082;17.016;2023-04-07T09:49:49;100422.03;;;9.25;40.79
56176;BME280;63065;51.082;17.016;2023-04-07T09:52:14;100420.81;;;9.58;40.29
56176;BME280;63065;51.082;17.016;2023-04-07T09:54:40;100422.73;;;9.33;39.39
56176;BME280;63065;51.082;17.016;2023-04-07T09:57:06;100425.11;;;8.73;40.70
56176;BME280;63065;51.082;17.016;2023-04-07T09:59:31;100423.17;;;9.01;40.94
56176;BME280;63065;51.082;17.016;2023-04-07T10:01:56;100424.04;;;9.68;40.21
56176;BME280;63065;51.082;17.016;2023-04-07T10:04:21;100425.10;;;9.76;40.11
56176;BME280;63065;51.082;17.016;2023-04-07T10:06:46;100423.77;;;9.35;39.74
56176;BME280;63065;51.082;17.016;2023-04-07T10:09:12;100419.64;;;8.99;40.48
56176;BME280;63065;51.082;17.016;2023-04-07T10:11:38;100419.55;;;9.48;40.27
56176;BME280;63065;51.082;17.016;2023-04-07T10:14:04;100416.13;;;9.24;40.61
56176;BME280;63065;51.082;17.016;2023-04-07T10:16:29;100410.43;;;8.80;41.65
56176;BME280;63065;51.082;17.016;2023-04-07T10:18:55;100415.40;;;8.87;41.79
56176;BME280;63065;51.082;17.016;2023-04-07T10:21:20;100417.22;;;8.55;41.41
56176;BME280;63065;51.082;17.016;2023-04-07T10:23:55;100414.02;;;8.55;42.11
56176;BME280;63065;51.082;17.016;2023-04-07T10:26:14;100417.01;;;8.94;41.67
56176;BME280;63065;51.082;17.016;2023-04-07T10:28:38;100411.02;;;8.76;41.48
56176;BME280;63065;51.082;17.016;2023-04-07T10:31:03;100414.27;;;9.11;40.14
56176;BME280;63065;51.082;17.016;2023-04-07T10:38:18;100410.37;;;9.38;40.11
56176;BME280;63065;51.082;17.016;2023-04-07T10:40:43;100411.08;;;8.90;41.82
56176;BME280;63065;51.082;17.016;2023-04-07T10:43:09;100413.96;;;8.53;42.11
56176;BME280;63065;51.082;17.016;2023-04-07T10:48:08;100415.41;;;8.27;43.55
56176;BME280;63065;51.082;17.016;2023-04-07T10:50:25;100416.50;;;7.72;44.09
56176;BME280;63065;51.082;17.016;2023-04-07T11:00:13;100418.87;;;9.69;40.97
56176;BME280;63065;51.082;17.016;2023-04-07T11:02:32;100419.62;;;9.21;41.67
56176;BME280;63065;51.082;17.016;2023-04-07T11:04:56;100420.71;;;9.77;41.55
56176;BME280;63065;51.082;17.016;2023-04-07T11:09:46;100425.15;;;9.51;41.87
56176;BME280;63065;51.082;17.016;2023-04-07T11:14:38;100422.66;;;10.01;41.07
56176;BME280;63065;51.082;17.016;2023-04-07T11:17:03;100421.05;;;10.16;41.10
56176;BME280;63065;51.082;17.016;2023-04-07T11:19:29;100423.38;;;9.01;42.22
56176;BME280;63065;51.082;17.016;2023-04-07T11:26:45;100422.74;;;9.27;42.76
56176;BME280;63065;51.082;17.016;2023-04-07T11:29:10;100420.63;;;9.80;40.99
56176;BME280;63065;51.082;17.016;2023-04-07T11:31:36;100424.55;;;9.46;40.75
56176;BME280;63065;51.082;17.016;2023-04-07T11:34:02;100420.85;;;8.64;42.60
56176;BME280;63065;51.082;17.016;2023-04-07T11:36:29;100421.61;;;9.02;42.66
56176;BME280;63065;51.082;17.016;2023-04-07T11:38:52;100420.88;;;9.56;41.70
56176;BME280;63065;51.082;17.016;2023-04-07T11:41:17;100417.52;;;9.73;41.41
56176;BME280;63065;51.082;17.016;2023-04-07T11:43:43;100419.69;;;9.17;41.25
56176;BME280;63065;51.082;17.016;2023-04-07T11:46:09;100418.18;;;8.95;42.15
56176;BME280;63065;51.082;17.016;2023-04-07T11:48:34;100413.51;;;8.76;42.87
56176;BME280;63065;51.082;17.016;2023-04-07T11:50:59;100413.69;;;8.95;43.38
56176;BME280;63065;51.082;17.016;2023-04-07T11:53:25;100414.91;;;9.06;42.91
56176;BME280;63065;51.082;17.016;2023-04-07T11:55:49;100410.81;;;8.98;42.74
56176;BME280;63065;51.082;17.016;2023-04-07T11:58:14;100413.15;;;9.04;43.00
56176;BME280;63065;51.082;17.016;2023-04-07T12:03:09;100408.24;;;9.28;42.78
56176;BME280;63065;51.082;17.016;2023-04-07T12:07:56;100408.04;;;8.53;43.91
56176;BME280;63065;51.082;17.016;2023-04-07T12:10:23;100400.48;;;8.83;43.36
56176;BME280;63065;51.082;17.016;2023-04-07T12:12:47;100399.11;;;9.01;42.90
56176;BME280;63065;51.082;17.016;2023-04-07T12:15:12;100401.47;;;9.32;42.26
56176;BME280;63065;51.082;17.016;2023-04-07T12:17:37;100401.54;;;9.37;42.62
56176;BME280;63065;51.082;17.016;2023-04-07T12:20:03;100396.90;;;9.16;41.52
56176;BME280;63065;51.082;17.016;2023-04-07T12:22:28;100394.35;;;9.26;43.00
56176;BME280;63065;51.082;17.016;2023-04-07T12:24:54;100396.86;;;8.99;43.46
56176;BME280;63065;51.082;17.016;2023-04-07T12:27:19;100394.85;;;8.97;42.92
56176;BME280;63065;51.082;17.016;2023-04-07T12:29:45;100398.73;;;9.33;42.23
56176;BME280;63065;51.082;17.016;2023-04-07T12:32:10;100395.25;;;9.92;41.41
56176;BME280;63065;51.082;17.016;2023-04-07T12:34:36;100397.79;;;9.79;41.04
56176;BME280;63065;51.082;17.016;2023-04-07T12:37:01;100390.95;;;9.14;42.20
56176;BME280;63065;51.082;17.016;2023-04-07T12:39:27;100390.43;;;9.07;42.80
56176;BME280;63065;51.082;17.016;2023-04-07T12:41:53;100390.46;;;9.39;41.75
56176;BME280;63065;51.082;17.016;2023-04-07T12:44:18;100388.49;;;9.21;42.66
56176;BME280;63065;51.082;17.016;2023-04-07T12:46:44;100387.11;;;9.09;43.30
56176;BME280;63065;51.082;17.016;2023-04-07T12:49:10;100388.17;;;9.17;42.25
56176;BME280;63065;51.082;17.016;2023-04-07T12:51:35;100384.58;;;9.22;42.16
56176;BME280;63065;51.082;17.016;2023-04-07T12:54:01;100385.44;;;9.33;42.62
56176;BME280;63065;51.082;17.016;2023-04-07T12:56:26;100380.87;;;9.11;41.92
56176;BME280;63065;51.082;17.016;2023-04-07T12:58:50;100381.96;;;9.37;42.60
56176;BME280;63065;51.082;17.016;2023-04-07T13:01:16;100380.23;;;9.52;42.11
56176;BME280;63065;51.082;17.016;2023-04-07T13:03:41;100379.03;;;9.62;41.46
56176;BME280;63065;51.082;17.016;2023-04-07T13:06:06;100376.74;;;8.87;42.42
56176;BME280;63065;51.082;17.016;2023-04-07T13:08:31;100380.46;;;8.98;42.48
56176;BME280;63065;51.082;17.016;2023-04-07T13:10:57;100381.55;;;9.61;42.20